createdAt,value
2018-04-01T08:10:14.194Z,99550.98
2018-04-01T08:12:41.237Z,99563.62
2018-04-01T08:15:09.395Z,99557.02
2018-04-01T08:17:36.678Z,99560.45
2018-04-01T08:20:03.733Z,99556.36
2018-04-01T08:22:30.909Z,99552.59
2018-04-01T08:24:57.991Z,99569.69
2018-04-01T08:27:25.091Z,99563.62
2018-04-01T08:29:52.200Z,99572.51
2018-04-01T08:32:19.243Z,99573.84
2018-04-01T08:34:46.320Z,99587.62
2018-04-01T08:37:13.371Z,99585.03
2018-04-01T08:39:40.480Z,99583.14
2018-04-01T08:42:07.571Z,99597.00
2018-04-01T08:44:34.691Z,99603.89
2018-04-01T08:47:01.740Z,99601.99
2018-04-01T08:49:29.935Z,99604.41
2018-04-01T08:51:56.975Z,99603.27
2018-04-01T08:54:24.008Z,99607.03
2018-04-01T08:56:51.066Z,99616.11
2018-04-01T08:59:18.291Z,99610.86
2018-04-01T09:01:45.314Z,99609.11
2018-04-01T09:04:12.383Z,99614.47
2018-04-01T09:06:39.449Z,99618.97
2018-04-01T09:09:06.525Z,99622.61
2018-04-01T09:11:33.630Z,99628.78
2018-04-01T09:14:00.691Z,99631.37
2018-04-01T09:16:27.803Z,99634.73
2018-04-01T09:18:54.871Z,99642.87
2018-04-01T09:21:21.911Z,99636.88
2018-04-01T09:23:48.948Z,99633.27
2018-04-01T09:26:15.991Z,99645.35
2018-04-01T09:28:45.148Z,99648.27
2018-04-01T09:31:12.206Z,99642.16
2018-04-01T09:33:39.299Z,99657.14
2018-04-01T09:36:08.672Z,99659.25
2018-04-01T09:38:35.785Z,99657.83
2018-04-01T09:41:03.587Z,99662.30
2018-04-01T09:43:30.659Z,99675.54
2018-04-01T09:45:57.758Z,99679.77
2018-04-01T09:48:25.052Z,99678.92
2018-04-01T09:50:52.571Z,99686.44
2018-04-01T09:53:19.751Z,99686.23
2018-04-01T09:55:46.888Z,99687.59
2018-04-01T09:58:14.081Z,99693.88
2018-04-01T10:03:03.243Z,99701.48
2018-04-01T10:05:31.230Z,99705.01
2018-04-01T10:07:58.976Z,99700.51
2018-04-01T10:10:26.610Z,99712.20
2018-04-01T10:13:01.033Z,99719.95
2018-04-01T10:15:30.080Z,99715.41
2018-04-01T10:18:06.218Z,99719.06
2018-04-01T10:20:33.814Z,99730.62
2018-04-01T10:23:01.913Z,99723.55
2018-04-01T10:25:29.559Z,99718.80
2018-04-01T10:27:57.176Z,99729.58
2018-04-01T10:30:25.623Z,99732.67
2018-04-01T10:32:53.249Z,99736.55
2018-04-01T10:35:20.898Z,99743.02
2018-04-01T10:37:48.650Z,99736.20
2018-04-01T10:40:16.448Z,99744.41
2018-04-01T10:42:46.273Z,99748.91
2018-04-01T10:45:13.986Z,99757.33
2018-04-01T10:47:41.725Z,99767.28
2018-04-01T10:50:09.418Z,99756.94
2018-04-01T10:52:37.077Z,99759.02
2018-04-01T10:55:04.292Z,99773.20
2018-04-01T10:57:31.307Z,99770.77
2018-04-01T10:59:58.455Z,99778.38
2018-04-01T11:02:25.568Z,99777.91
2018-04-01T11:04:52.738Z,99787.27
2018-04-01T11:07:19.867Z,99783.95
2018-04-01T11:09:47.016Z,99793.67
2018-04-01T11:12:14.189Z,99796.80
2018-04-01T11:14:41.238Z,99798.62
2018-04-01T11:17:08.338Z,99797.95
2018-04-01T11:19:35.439Z,99799.73
2018-04-01T11:22:02.548Z,99797.56
2018-04-01T11:24:29.728Z,99796.23
2018-04-01T11:26:56.896Z,99801.73
2018-04-01T11:29:23.998Z,99795.63
2018-04-01T11:31:51.308Z,99806.52
2018-04-01T11:34:18.368Z,99803.41
2018-04-01T11:36:45.745Z,99809.65
2018-04-01T11:39:12.787Z,99804.76
2018-04-01T11:41:53.898Z,99815.01
2018-04-01T11:44:21.928Z,99811.56
2018-04-01T11:46:48.975Z,99808.34
2018-04-01T11:49:17.224Z,99812.92
2018-04-01T11:54:39.396Z,99826.88
2018-04-01T11:57:06.488Z,99820.02
2018-04-01T11:59:34.016Z,99823.34
2018-04-01T12:02:01.191Z,99821.69
2018-04-01T12:04:28.296Z,99827.45
2018-04-01T12:06:55.366Z,99832.72
2018-04-01T12:09:22.468Z,99839.38
2018-04-01T12:11:49.541Z,99832.87
2018-04-01T12:14:16.683Z,99849.34
2018-04-01T12:16:43.728Z,99849.84
2018-04-01T12:19:10.888Z,99859.80
2018-04-01T12:21:37.938Z,99858.59
2018-04-01T12:24:05.028Z,99859.73
2018-04-01T12:26:32.240Z,99862.45
2018-04-01T12:28:59.370Z,99867.39
2018-04-01T12:31:26.539Z,99867.52
2018-04-01T12:33:53.575Z,99866.03
2018-04-01T12:36:20.611Z,99869.40
2018-04-01T12:38:47.706Z,99886.37
2018-04-01T12:41:14.776Z,99883.58
2018-04-01T12:43:41.835Z,99873.33
2018-04-01T12:46:14.841Z,99882.36
2018-04-01T12:48:41.917Z,99879.95
2018-04-01T12:51:09.030Z,99884.49
2018-04-01T12:53:36.124Z,99886.36
2018-04-01T12:56:03.165Z,99891.54
2018-04-01T12:58:30.258Z,99889.25
2018-04-01T13:00:57.300Z,99898.41
2018-04-01T13:03:24.419Z,99903.09
2018-04-01T13:05:51.456Z,99893.23
2018-04-01T13:08:18.530Z,99907.72
2018-04-01T13:10:45.586Z,99920.44
2018-04-01T13:13:12.623Z,99913.22
2018-04-01T13:15:39.705Z,99921.08
2018-04-01T13:18:06.743Z,99922.35
2018-04-01T13:20:33.814Z,99918.73
2018-04-01T13:23:00.960Z,99921.16
2018-04-01T13:25:28.117Z,99922.57
2018-04-01T13:27:55.256Z,99925.08
2018-04-01T13:30:22.320Z,99927.14
2018-04-01T13:32:49.353Z,99923.94
2018-04-01T13:35:16.455Z,99931.54
2018-04-01T13:37:43.579Z,99934.27
2018-04-01T13:40:10.620Z,99934.46
2018-04-01T13:42:37.697Z,99937.65
2018-04-01T13:45:04.724Z,99942.77
2018-04-01T13:47:31.796Z,99941.05
2018-04-01T13:49:58.877Z,99947.10
2018-04-01T13:52:25.926Z,99952.25
2018-04-01T13:54:53.939Z,99941.50
2018-04-01T13:57:21.030Z,99950.69
2018-04-01T13:59:48.079Z,99952.74
2018-04-01T14:02:15.151Z,99953.79
2018-04-01T14:04:42.202Z,99959.31
2018-04-01T14:07:09.284Z,99962.25
2018-04-01T14:09:36.404Z,99965.30
2018-04-01T14:12:03.455Z,99968.81
2018-04-01T14:14:30.532Z,99970.08
2018-04-01T14:16:57.609Z,99973.28
2018-04-01T14:19:24.687Z,99967.12
2018-04-01T14:21:51.750Z,99964.85
2018-04-01T14:24:18.790Z,99977.00
2018-04-01T14:26:45.815Z,99976.17
2018-04-01T14:29:12.851Z,99978.34
2018-04-01T14:31:39.984Z,99979.70
2018-04-01T14:34:07.039Z,99983.63
2018-04-01T14:36:34.381Z,99991.13
2018-04-01T14:39:01.433Z,99993.39
2018-04-01T14:41:28.478Z,100006.63
2018-04-01T14:43:55.530Z,99998.98
2018-04-01T14:46:22.568Z,100009.52
2018-04-01T14:48:49.614Z,100017.17
2018-04-01T14:51:16.663Z,100017.19
2018-04-01T14:53:43.862Z,100017.35
2018-04-01T14:56:10.899Z,100028.13
2018-04-01T14:58:38.069Z,100020.39
2018-04-01T15:01:05.094Z,100022.39
2018-04-01T15:03:32.128Z,100020.98
2018-04-01T15:05:59.204Z,100029.48
2018-04-01T15:08:26.243Z,100025.12
2018-04-01T15:10:53.373Z,100030.53
2018-04-01T15:13:21.236Z,100030.44
2018-04-01T15:15:48.392Z,100027.72
2018-04-01T15:18:15.467Z,100031.64
2018-04-01T15:20:42.587Z,100039.06
2018-04-01T15:23:09.619Z,100036.48
2018-04-01T15:25:36.657Z,100042.33
2018-04-01T15:28:04.192Z,100043.53
2018-04-01T15:30:31.230Z,100039.00
2018-04-01T15:32:58.276Z,100048.02
2018-04-01T15:35:25.320Z,100045.76
2018-04-01T15:37:52.359Z,100037.59
2018-04-01T15:40:19.906Z,100053.56
2018-04-01T15:42:47.000Z,100050.92
2018-04-01T15:45:14.043Z,100056.54
2018-04-01T15:47:41.115Z,100060.59
2018-04-01T15:50:08.156Z,100054.94
2018-04-01T15:52:35.191Z,100059.74
2018-04-01T15:55:02.228Z,100065.60
2018-04-01T15:57:29.272Z,100061.55
2018-04-01T15:59:56.309Z,100074.09
2018-04-01T16:02:23.374Z,100077.67
2018-04-01T16:04:50.432Z,100076.66
2018-04-01T16:07:17.653Z,100086.77
2018-04-01T16:09:44.692Z,100085.70
2018-04-01T16:12:11.867Z,100096.14
2018-04-01T16:14:38.911Z,100106.06
2018-04-01T16:17:06.163Z,100108.09
2018-04-01T16:19:33.020Z,100098.25
2018-04-01T16:22:00.127Z,100109.28
2018-04-01T16:24:28.016Z,100114.03
2018-04-01T16:26:55.056Z,100115.83
2018-04-01T16:29:22.140Z,100121.21
2018-04-01T16:31:49.180Z,100118.73
2018-04-01T16:34:16.220Z,100112.02
2018-04-01T16:36:43.251Z,100115.41
2018-04-01T16:39:10.296Z,100121.32
2018-04-01T16:41:37.334Z,100117.21
2018-04-01T16:44:04.422Z,100126.31
2018-04-01T16:46:31.820Z,100127.27
2018-04-01T16:48:58.855Z,100125.84
2018-04-01T16:51:25.937Z,100131.57
2018-04-01T16:53:52.984Z,100138.30
2018-04-01T16:56:20.834Z,100138.52
2018-04-01T16:58:48.024Z,100137.69
2018-04-01T17:01:15.187Z,100140.75
2018-04-01T17:03:42.287Z,100144.89
2018-04-01T17:06:09.856Z,100140.95
2018-04-01T17:08:36.896Z,100137.96
2018-04-01T17:11:03.979Z,100152.29
2018-04-01T17:13:31.076Z,100151.84
2018-04-01T17:15:58.167Z,100155.97
2018-04-01T17:18:26.192Z,100156.05
2018-04-01T17:20:53.232Z,100165.54
2018-04-01T17:23:22.384Z,100165.74
2018-04-01T17:25:49.479Z,100178.53
2018-04-01T17:28:16.795Z,100172.88
2018-04-01T17:30:44.127Z,100176.05
2018-04-01T17:33:11.256Z,100179.22
2018-04-01T17:35:38.452Z,100181.59
2018-04-01T17:38:05.578Z,100174.81
2018-04-01T17:40:32.668Z,100192.66
2018-04-01T17:42:59.900Z,100182.70
2018-04-01T17:45:27.078Z,100195.05
2018-04-01T17:47:54.113Z,100198.58
2018-04-01T17:50:21.159Z,100200.63
2018-04-01T17:52:48.747Z,100200.70
2018-04-01T17:55:16.757Z,100201.55
2018-04-01T17:57:43.903Z,100198.21
2018-04-01T18:00:10.952Z,100207.75
2018-04-01T18:02:38.891Z,100210.16
2018-04-01T18:05:05.940Z,100217.34
2018-04-01T18:07:33.148Z,100215.29
2018-04-01T18:10:00.284Z,100217.30
2018-04-01T18:12:27.340Z,100219.33
2018-04-01T18:14:54.939Z,100223.39
2018-04-01T18:17:22.273Z,100220.39
2018-04-01T18:19:49.510Z,100228.89
2018-04-01T18:22:16.827Z,100229.41
2018-04-01T18:24:45.037Z,100234.92
2018-04-01T18:27:13.223Z,100240.17
2018-04-01T18:29:41.402Z,100237.98
2018-04-01T18:32:09.323Z,100240.88
2018-04-01T18:34:37.693Z,100244.13
2018-04-01T18:37:06.178Z,100252.06
2018-04-01T18:39:33.728Z,100257.22
2018-04-01T18:42:00.942Z,100247.88
2018-04-01T18:44:28.503Z,100242.34
2018-04-01T18:46:56.062Z,100255.51
2018-04-01T18:49:23.929Z,100250.59
2018-04-01T18:51:51.769Z,100257.43
2018-04-01T18:54:18.949Z,100265.92
2018-04-01T18:56:46.775Z,100263.91
2018-04-01T18:59:14.273Z,100267.75
2018-04-01T19:01:42.498Z,100270.78
2018-04-01T19:04:10.631Z,100270.06
2018-04-01T19:06:38.608Z,100267.50
2018-04-01T19:09:06.415Z,100269.70
2018-04-01T19:11:34.224Z,100284.09
2018-04-01T19:14:02.148Z,100276.14
2018-04-01T19:16:32.009Z,100281.76
2018-04-01T19:19:01.060Z,100285.06
2018-04-01T19:21:30.536Z,100284.45
2018-04-01T19:23:59.255Z,100284.42
2018-04-01T19:26:27.880Z,100298.64
2018-04-01T19:28:56.719Z,100292.48
2018-04-01T19:31:26.172Z,100296.94
2018-04-01T19:33:55.712Z,100296.27
2018-04-01T19:36:24.503Z,100289.42
2018-04-01T19:38:53.150Z,100289.95
2018-04-01T19:41:22.011Z,100283.27
2018-04-01T19:43:50.605Z,100288.94
2018-04-01T19:46:19.733Z,100286.04
2018-04-01T19:48:48.479Z,100287.38
2018-04-01T19:51:17.525Z,100294.91
2018-04-01T19:53:47.456Z,100288.72
2018-04-01T19:56:16.299Z,100292.75
2018-04-01T19:58:46.031Z,100298.11
2018-04-01T20:01:14.722Z,100296.09
2018-04-01T20:03:43.551Z,100284.20
2018-04-01T20:06:12.094Z,100298.17
2018-04-01T20:08:40.782Z,100294.86
2018-04-01T20:11:09.423Z,100291.98
2018-04-01T20:13:38.378Z,100305.85
2018-04-01T20:16:06.984Z,100304.96
2018-04-01T20:18:35.638Z,100297.27
2018-04-01T20:21:03.836Z,100299.20
2018-04-01T20:23:32.387Z,100294.09
2018-04-01T20:26:00.972Z,100291.58
2018-04-01T20:28:29.475Z,100290.55
2018-04-01T20:30:58.050Z,100302.74
2018-04-01T20:33:26.628Z,100302.64
2018-04-01T20:35:54.387Z,100308.75
2018-04-01T20:38:22.891Z,100312.64
2018-04-01T20:40:51.612Z,100316.61
2018-04-01T20:43:20.552Z,100312.63
2018-04-01T20:45:48.319Z,100314.24
2018-04-01T20:48:16.804Z,100319.07
2018-04-01T20:50:44.614Z,100312.75
2018-04-01T20:53:12.276Z,100312.92
2018-04-01T20:55:40.847Z,100312.16
2018-04-01T20:58:09.348Z,100315.53
2018-04-01T21:00:37.891Z,100317.64
2018-04-01T21:03:05.540Z,100318.23
2018-04-01T21:05:34.111Z,100320.16
2018-04-01T21:08:02.796Z,100331.43
2018-04-01T21:10:30.636Z,100334.91
2018-04-01T21:12:58.401Z,100334.53
2018-04-01T21:15:26.105Z,100332.72
2018-04-01T21:17:53.723Z,100335.09
2018-04-01T21:20:21.462Z,100339.20
2018-04-01T21:22:49.112Z,100343.89
2018-04-01T21:25:16.916Z,100337.92
2018-04-01T21:27:44.559Z,100338.65
2018-04-01T21:30:12.213Z,100339.85
2018-04-01T21:32:39.970Z,100345.28
2018-04-01T21:35:08.101Z,100353.62
2018-04-01T21:37:35.891Z,100350.27
2018-04-01T21:40:03.479Z,100353.37
2018-04-01T21:42:31.070Z,100353.34
2018-04-01T21:44:58.673Z,100357.98
2018-04-01T21:47:26.271Z,100352.70
2018-04-01T21:49:54.038Z,100356.05
2018-04-01T21:52:21.627Z,100363.03
2018-04-01T21:54:49.211Z,100358.02
2018-04-01T21:57:16.812Z,100352.08
2018-04-01T21:59:45.107Z,100356.16
2018-04-01T22:02:12.732Z,100361.68
2018-04-01T22:04:40.327Z,100361.73
2018-04-01T22:07:07.918Z,100363.58
2018-04-01T22:09:35.528Z,100360.35
2018-04-01T22:12:03.149Z,100346.63
2018-04-01T22:14:30.768Z,100351.31
2018-04-01T22:16:58.348Z,100345.50
2018-04-01T22:19:25.928Z,100350.89
2018-04-01T22:21:53.515Z,100346.92
2018-04-01T22:24:21.100Z,100339.52
2018-04-01T22:26:48.702Z,100343.79
2018-04-01T22:29:16.371Z,100340.00
2018-04-01T22:31:43.963Z,100338.31
2018-04-01T22:34:11.547Z,100345.30
2018-04-01T22:36:39.126Z,100343.24
2018-04-01T22:39:06.711Z,100342.92
2018-04-01T22:41:34.298Z,100349.64
2018-04-01T22:44:01.991Z,100358.63
2018-04-01T22:46:29.638Z,100362.12
2018-04-01T22:48:57.299Z,100363.47
2018-04-01T22:51:24.885Z,100362.44
2018-04-01T22:53:52.465Z,100368.55
2018-04-01T22:56:20.056Z,100370.47
2018-04-01T22:58:47.648Z,100379.11
2018-04-01T23:01:15.353Z,100376.16
2018-04-01T23:03:42.944Z,100375.45
2018-04-01T23:06:10.567Z,100379.80
2018-04-01T23:08:38.176Z,100380.56
2018-04-01T23:11:05.752Z,100388.22
2018-04-01T23:13:33.387Z,100393.80
2018-04-01T23:16:00.971Z,100392.70
2018-04-01T23:18:28.551Z,100406.37
2018-04-01T23:20:56.130Z,100399.47
2018-04-01T23:23:23.747Z,100401.12
2018-04-01T23:25:52.032Z,100403.71
2018-04-01T23:28:19.624Z,100402.30
2018-04-01T23:30:47.220Z,100411.16
2018-04-01T23:33:14.855Z,100415.56
2018-04-01T23:35:42.441Z,100415.25
2018-04-01T23:38:10.023Z,100425.12
2018-04-01T23:40:38.215Z,100424.47
2018-04-01T23:43:05.805Z,100434.06
2018-04-01T23:45:33.399Z,100436.77
2018-04-01T23:48:01.003Z,100427.27
2018-04-01T23:50:28.609Z,100433.87
2018-04-01T23:52:56.248Z,100435.84
2018-04-01T23:55:23.912Z,100438.75
2018-04-01T23:57:51.760Z,100440.91
